createdAt,value
2023-02-09T00:01:37.145Z,99.90
2023-02-09T00:04:04.457Z,99.90
2023-02-09T00:06:31.716Z,99.90
2023-02-09T00:08:59.605Z,99.90
2023-02-09T00:11:50.427Z,99.90
2023-02-09T00:14:21.782Z,99.90
2023-02-09T00:16:50.172Z,99.90
2023-02-09T00:19:18.407Z,99.90
2023-02-09T00:21:45.737Z,99.90
2023-02-09T00:24:13.702Z,99.90
2023-02-09T00:26:41.726Z,99.90
2023-02-09T00:29:09.546Z,99.90
2023-02-09T00:31:37.132Z,99.90
2023-02-09T00:34:04.814Z,99.90
2023-02-09T00:36:31.906Z,99.90
2023-02-09T00:39:00.129Z,99.90
2023-02-09T00:41:48.556Z,99.90
2023-02-09T00:44:15.783Z,99.90
2023-02-09T00:46:42.900Z,99.90
2023-02-09T00:49:10.041Z,99.90
2023-02-09T00:51:37.476Z,99.90
2023-02-09T00:54:04.785Z,99.90
2023-02-09T00:56:32.075Z,99.90
2023-02-09T00:59:00.284Z,99.90
2023-02-09T01:01:27.446Z,99.90
2023-02-09T01:03:54.797Z,99.90
2023-02-09T01:06:22.506Z,99.90
2023-02-09T01:08:50.940Z,99.90
2023-02-09T01:11:19.241Z,99.90
2023-02-09T01:13:47.711Z,99.90
2023-02-09T01:16:18.059Z,99.90
2023-02-09T01:18:45.307Z,99.90
2023-02-09T01:21:21.344Z,99.90
2023-02-09T01:23:49.179Z,99.90
2023-02-09T01:26:18.340Z,99.90
2023-02-09T01:28:49.281Z,99.90
2023-02-09T01:31:24.010Z,99.90
2023-02-09T01:33:53.037Z,99.90
2023-02-09T01:36:20.785Z,99.90
2023-02-09T01:38:50.504Z,99.90
2023-02-09T01:41:18.272Z,99.90
2023-02-09T01:44:24.938Z,99.90
2023-02-09T01:46:52.371Z,99.90
2023-02-09T01:49:26.743Z,99.90
2023-02-09T01:51:59.761Z,99.90
2023-02-09T01:54:34.540Z,99.90
2023-02-09T01:57:13.218Z,99.90
2023-02-09T01:59:43.764Z,99.90
2023-02-09T02:02:11.067Z,99.90
2023-02-09T02:04:39.297Z,99.90
2023-02-09T02:07:22.440Z,99.90
2023-02-09T02:09:50.438Z,99.90
2023-02-09T02:12:18.433Z,99.90
2023-02-09T02:14:45.754Z,99.90
2023-02-09T02:17:50.369Z,99.90
2023-02-09T02:20:33.305Z,99.90
2023-02-09T02:23:03.524Z,99.90
2023-02-09T02:25:36.735Z,99.90
2023-02-09T02:28:24.140Z,99.90
2023-02-09T02:31:08.701Z,99.90
2023-02-09T02:34:09.078Z,99.90
2023-02-09T02:37:10.036Z,99.90
2023-02-09T02:39:52.824Z,99.90
2023-02-09T02:42:50.336Z,99.90
2023-02-09T02:45:54.479Z,99.90
2023-02-09T02:48:54.355Z,99.90
2023-02-09T02:51:41.340Z,99.90
2023-02-09T02:54:13.694Z,99.90
2023-02-09T02:56:44.368Z,99.90
2023-02-09T02:59:15.252Z,99.90
2023-02-09T03:01:53.735Z,99.90
2023-02-09T03:04:21.721Z,99.90
2023-02-09T03:06:48.746Z,99.90
2023-02-09T03:09:18.869Z,99.90
2023-02-09T03:11:50.261Z,99.90
2023-02-09T03:14:43.052Z,99.90
2023-02-09T03:17:44.305Z,99.90
2023-02-09T03:20:17.085Z,99.90
2023-02-09T03:22:52.552Z,99.90
2023-02-09T03:25:23.108Z,99.90
2023-02-09T03:28:02.604Z,99.90
2023-02-09T03:30:31.892Z,99.90
2023-02-09T03:32:59.175Z,99.90
2023-02-09T03:35:31.878Z,99.90
2023-02-09T03:37:58.984Z,99.90
2023-02-09T03:40:26.497Z,99.90
2023-02-09T03:42:53.594Z,99.90
2023-02-09T03:45:20.788Z,99.90
2023-02-09T03:47:48.056Z,99.90
2023-02-09T03:50:15.532Z,99.90
2023-02-09T03:52:42.628Z,99.90
2023-02-09T03:55:09.805Z,99.90
2023-02-09T03:57:36.910Z,99.90
2023-02-09T04:00:04.391Z,99.90
2023-02-09T04:02:39.355Z,99.90
2023-02-09T04:05:06.874Z,99.90
2023-02-09T04:07:34.226Z,99.90
2023-02-09T04:10:01.406Z,99.90
2023-02-09T04:12:28.519Z,99.90
2023-02-09T04:14:55.647Z,99.90
2023-02-09T04:17:22.798Z,99.90
2023-02-09T04:19:49.880Z,99.90
2023-02-09T04:22:17.015Z,99.90
2023-02-09T04:24:44.752Z,99.90
2023-02-09T04:27:11.974Z,99.90
2023-02-09T04:29:39.096Z,99.90
2023-02-09T04:32:06.220Z,99.90
2023-02-09T04:34:33.294Z,99.90
2023-02-09T04:37:01.823Z,99.90
2023-02-09T04:39:29.020Z,99.90
2023-02-09T04:41:56.116Z,99.90
2023-02-09T04:44:23.230Z,99.90
2023-02-09T04:46:50.315Z,99.90
2023-02-09T04:49:17.400Z,99.90
2023-02-09T04:51:44.487Z,99.90
2023-02-09T04:54:11.630Z,99.90
2023-02-09T04:56:39.020Z,99.90
2023-02-09T04:59:24.552Z,99.90
2023-02-09T05:01:52.215Z,99.90
2023-02-09T05:04:19.705Z,99.90
2023-02-09T05:06:46.835Z,99.90
2023-02-09T05:09:14.064Z,99.90
2023-02-09T05:11:41.185Z,99.90
2023-02-09T05:14:08.309Z,99.90
2023-02-09T05:16:37.045Z,99.90
2023-02-09T05:19:05.565Z,99.90
2023-02-09T05:21:32.766Z,99.90
2023-02-09T05:23:59.845Z,99.90
2023-02-09T05:26:27.054Z,99.90
2023-02-09T05:28:54.254Z,99.90
2023-02-09T05:31:21.538Z,99.90
2023-02-09T05:33:48.748Z,99.90
2023-02-09T05:36:15.932Z,99.90
2023-02-09T05:38:43.032Z,99.90
2023-02-09T05:41:35.800Z,99.90
2023-02-09T05:44:04.328Z,99.90
2023-02-09T05:46:31.522Z,99.90
2023-02-09T05:48:58.660Z,99.90
2023-02-09T05:51:25.795Z,99.90
2023-02-09T05:53:54.234Z,99.90
2023-02-09T05:56:22.745Z,99.90
2023-02-09T05:58:49.812Z,99.90
2023-02-09T06:01:16.922Z,99.90
2023-02-09T06:03:44.010Z,99.90
2023-02-09T06:06:11.193Z,99.90
2023-02-09T06:08:38.256Z,99.90
2023-02-09T06:11:06.345Z,99.90
2023-02-09T06:13:33.519Z,99.90
2023-02-09T06:16:00.707Z,99.90
2023-02-09T06:18:27.804Z,99.90
2023-02-09T06:20:54.989Z,99.90
2023-02-09T06:23:22.113Z,99.90
2023-02-09T06:25:53.244Z,99.90
2023-02-09T06:28:20.900Z,99.90
2023-02-09T06:30:52.379Z,99.90
2023-02-09T06:33:20.643Z,99.90
2023-02-09T06:35:47.668Z,99.90
2023-02-09T06:38:14.695Z,99.90
2023-02-09T06:40:41.777Z,99.90
2023-02-09T06:43:08.849Z,99.90
2023-02-09T06:45:39.017Z,99.90
2023-02-09T06:48:07.606Z,99.90
2023-02-09T06:50:36.651Z,99.90
2023-02-09T06:53:04.673Z,99.90
2023-02-09T06:55:32.432Z,99.90
2023-02-09T06:57:59.669Z,99.90
2023-02-09T07:00:26.652Z,99.90
2023-02-09T07:02:54.102Z,99.90
2023-02-09T07:05:21.232Z,99.90
2023-02-09T07:07:50.679Z,99.90
2023-02-09T07:10:18.845Z,99.90
2023-02-09T07:12:45.863Z,99.90
2023-02-09T07:15:13.890Z,99.90
2023-02-09T07:17:42.389Z,99.90
2023-02-09T07:20:10.626Z,99.90
2023-02-09T07:22:37.639Z,99.90
2023-02-09T07:25:05.055Z,99.90
2023-02-09T07:27:32.199Z,99.90
2023-02-09T07:30:01.069Z,99.90
2023-02-09T07:32:28.883Z,99.90
2023-02-09T07:34:55.924Z,99.90
2023-02-09T07:37:22.920Z,99.90
2023-02-09T07:39:50.032Z,99.90
2023-02-09T07:42:17.151Z,99.90
2023-02-09T07:44:51.043Z,99.90
2023-02-09T07:47:18.189Z,99.90
2023-02-09T07:49:45.223Z,99.90
2023-02-09T07:52:12.353Z,99.90
2023-02-09T07:54:39.340Z,99.90
2023-02-09T07:57:06.341Z,99.90
2023-02-09T07:59:33.352Z,99.90
2023-02-09T08:02:00.532Z,99.90
2023-02-09T08:04:27.775Z,99.90
2023-02-09T08:06:55.540Z,99.90
2023-02-09T08:09:22.728Z,99.90
2023-02-09T08:12:03.314Z,99.90
2023-02-09T08:14:38.537Z,99.90
2023-02-09T08:17:20.484Z,99.90
2023-02-09T08:20:02.459Z,99.90
2023-02-09T08:22:33.646Z,99.90
2023-02-09T08:25:02.968Z,99.90
2023-02-09T08:27:30.476Z,99.90
2023-02-09T08:29:58.815Z,99.90
2023-02-09T08:32:25.964Z,99.90
2023-02-09T08:34:53.240Z,98.80
2023-02-09T08:37:20.288Z,93.70
2023-02-09T08:39:47.291Z,85.40
2023-02-09T08:42:14.277Z,80.00
2023-02-09T08:44:41.338Z,61.90
2023-02-09T08:47:08.445Z,73.80
2023-02-09T08:49:35.976Z,72.00
2023-02-09T08:52:03.032Z,63.30
2023-02-09T08:54:30.169Z,70.20
2023-02-09T08:56:57.162Z,51.50
2023-02-09T08:59:24.182Z,68.10
2023-02-09T09:01:51.377Z,68.60
2023-02-09T09:04:18.356Z,63.10
2023-02-09T09:06:45.408Z,54.90
2023-02-09T09:09:12.475Z,43.80
2023-02-09T09:11:39.728Z,55.10
2023-02-09T09:14:06.789Z,50.20
2023-02-09T09:16:33.987Z,50.70
2023-02-09T09:19:01.056Z,67.60
2023-02-09T09:21:28.026Z,65.50
2023-02-09T09:23:55.036Z,69.00
2023-02-09T09:26:22.775Z,68.80
2023-02-09T09:28:51.329Z,72.00
2023-02-09T09:31:18.930Z,68.80
2023-02-09T09:33:46.263Z,54.80
2023-02-09T09:36:14.786Z,78.40
2023-02-09T09:38:42.561Z,70.00
2023-02-09T09:41:23.992Z,84.50
2023-02-09T09:43:51.755Z,89.40
2023-02-09T09:46:22.336Z,87.20
2023-02-09T09:48:56.220Z,85.70
2023-02-09T09:51:36.210Z,92.80
2023-02-09T09:54:07.894Z,91.90
2023-02-09T09:56:35.078Z,91.10
2023-02-09T09:59:02.699Z,95.20
2023-02-09T10:01:32.493Z,99.90
2023-02-09T10:04:02.762Z,99.90
2023-02-09T10:06:33.915Z,99.90
2023-02-09T10:09:12.302Z,99.90
2023-02-09T10:11:47.455Z,97.60
2023-02-09T10:14:15.969Z,99.90
2023-02-09T10:16:44.779Z,99.90
2023-02-09T10:19:19.669Z,99.90
2023-02-09T10:21:47.149Z,99.90
2023-02-09T10:24:21.847Z,99.90
2023-02-09T10:27:08.350Z,99.70
2023-02-09T10:29:36.351Z,99.90
2023-02-09T10:32:14.938Z,99.90
2023-02-09T10:34:47.737Z,99.90
2023-02-09T10:37:33.205Z,99.90
2023-02-09T10:40:16.821Z,99.90
2023-02-09T10:42:56.370Z,99.90
2023-02-09T10:45:33.028Z,99.90
2023-02-09T10:48:22.067Z,99.90
2023-02-09T10:50:58.075Z,99.90
2023-02-09T10:53:36.059Z,99.90
2023-02-09T10:56:28.636Z,99.90
2023-02-09T10:58:58.448Z,99.90
2023-02-09T11:01:31.256Z,90.00
2023-02-09T11:04:05.829Z,86.90
2023-02-09T11:06:48.186Z,76.50
2023-02-09T11:09:18.832Z,92.90
2023-02-09T11:11:46.504Z,99.90
2023-02-09T11:14:16.393Z,99.90
2023-02-09T11:17:14.881Z,99.90
2023-02-09T11:20:00.663Z,99.90
2023-02-09T11:22:39.698Z,99.20
2023-02-09T11:25:25.659Z,99.90
2023-02-09T11:28:01.694Z,96.60
2023-02-09T11:30:40.592Z,99.90
2023-02-09T11:33:33.149Z,99.90
2023-02-09T11:36:14.697Z,99.90
2023-02-09T11:38:49.545Z,99.90
2023-02-09T11:41:47.540Z,99.90
2023-02-09T11:44:56.352Z,91.20
2023-02-09T11:47:33.131Z,99.80
2023-02-09T11:50:05.914Z,97.20
2023-02-09T11:52:49.113Z,99.90
2023-02-09T11:55:43.258Z,99.90
2023-02-09T11:58:32.566Z,99.90
2023-02-09T12:01:18.804Z,98.90
2023-02-09T12:04:02.693Z,96.30
2023-02-09T12:06:38.790Z,99.40
2023-02-09T12:09:36.776Z,95.40
2023-02-09T12:12:09.616Z,91.50
2023-02-09T12:14:39.513Z,79.90
2023-02-09T12:17:20.825Z,85.50
2023-02-09T12:19:59.425Z,95.90
2023-02-09T12:22:35.675Z,97.00
2023-02-09T12:25:11.978Z,95.70
2023-02-09T12:27:42.315Z,92.40
2023-02-09T12:30:45.286Z,98.10
2023-02-09T12:33:27.693Z,97.90
2023-02-09T12:36:09.962Z,94.30
2023-02-09T12:38:56.765Z,95.10
2023-02-09T12:41:25.586Z,93.50
2023-02-09T12:44:11.062Z,94.10
2023-02-09T12:46:44.049Z,93.50
2023-02-09T12:49:14.478Z,93.00
2023-02-09T12:51:50.566Z,91.80
2023-02-09T12:54:43.367Z,78.20
2023-02-09T12:57:16.623Z,90.10
2023-02-09T12:59:53.361Z,91.80
2023-02-09T13:02:59.684Z,91.20
2023-02-09T13:05:30.427Z,90.70
2023-02-09T13:08:18.604Z,91.10
2023-02-09T13:11:01.082Z,90.70
2023-02-09T13:13:28.585Z,90.00
2023-02-09T13:16:03.533Z,89.30
2023-02-09T13:18:49.120Z,85.70
2023-02-09T13:21:35.424Z,87.40
2023-02-09T13:24:13.085Z,81.00
2023-02-09T13:26:58.547Z,87.00
2023-02-09T13:29:31.621Z,87.50
2023-02-09T13:32:16.919Z,85.90
2023-02-09T13:34:56.135Z,86.60
2023-02-09T13:37:47.012Z,88.50
2023-02-09T13:40:18.041Z,88.50
2023-02-09T13:43:11.405Z,87.10
2023-02-09T13:45:53.485Z,82.70
2023-02-09T13:48:25.087Z,90.40
2023-02-09T13:50:54.161Z,91.20
2023-02-09T13:53:24.808Z,90.40
2023-02-09T13:55:53.433Z,91.20
2023-02-09T13:58:24.754Z,91.40
2023-02-09T14:00:57.193Z,91.70
2023-02-09T14:03:33.449Z,91.80
2023-02-09T14:06:09.238Z,82.80
2023-02-09T14:08:39.287Z,90.30
2023-02-09T14:11:24.395Z,92.30
2023-02-09T14:14:01.142Z,92.80
2023-02-09T14:16:28.490Z,92.70
2023-02-09T14:18:57.382Z,93.00
2023-02-09T14:21:32.721Z,92.80
2023-02-09T14:23:59.728Z,93.00
2023-02-09T14:26:29.374Z,92.90
2023-02-09T14:29:26.893Z,90.10
2023-02-09T14:31:57.612Z,92.50
2023-02-09T14:34:45.066Z,93.90
2023-02-09T14:37:12.177Z,94.10
2023-02-09T14:40:15.850Z,94.90
2023-02-09T14:43:01.933Z,94.30
2023-02-09T14:45:44.904Z,95.60
2023-02-09T14:48:22.453Z,96.20
2023-02-09T14:51:16.318Z,96.10
2023-02-09T14:53:44.137Z,96.50
2023-02-09T14:56:30.182Z,95.80
2023-02-09T14:58:57.282Z,97.30
2023-02-09T15:01:24.566Z,98.10
2023-02-09T15:03:51.647Z,98.20
2023-02-09T15:06:18.819Z,98.90
2023-02-09T15:08:46.162Z,99.40
2023-02-09T15:11:42.669Z,99.20
2023-02-09T15:14:11.508Z,99.30
2023-02-09T15:16:38.618Z,99.60
2023-02-09T15:19:14.975Z,99.10
2023-02-09T15:21:42.418Z,99.10
2023-02-09T15:24:09.398Z,99.10
2023-02-09T15:26:37.119Z,99.50
2023-02-09T15:29:15.947Z,99.90
2023-02-09T15:31:43.249Z,99.90
2023-02-09T15:34:14.724Z,99.90
2023-02-09T15:36:42.882Z,99.90
2023-02-09T15:39:19.878Z,99.90
2023-02-09T15:42:05.306Z,99.90
2023-02-09T15:44:50.763Z,99.90
2023-02-09T15:47:36.300Z,99.90
2023-02-09T15:50:03.887Z,99.90
2023-02-09T15:52:31.008Z,99.90
2023-02-09T15:54:58.045Z,99.90
2023-02-09T15:57:27.711Z,99.20
2023-02-09T15:59:54.828Z,99.90
2023-02-09T16:02:22.464Z,99.90
2023-02-09T16:04:49.680Z,99.90
2023-02-09T16:07:24.651Z,99.90
2023-02-09T16:09:52.411Z,99.90
2023-02-09T16:12:22.607Z,99.90
2023-02-09T16:14:50.693Z,99.90
2023-02-09T16:17:19.333Z,99.90
2023-02-09T16:19:49.163Z,99.90
2023-02-09T16:22:16.311Z,99.90
2023-02-09T16:24:46.812Z,99.90
2023-02-09T16:27:21.813Z,99.90
2023-02-09T16:29:50.812Z,99.90
2023-02-09T16:32:22.142Z,99.90
2023-02-09T16:34:50.288Z,99.90
2023-02-09T16:37:22.132Z,99.90
2023-02-09T16:39:49.342Z,99.90
2023-02-09T16:42:16.512Z,99.90
2023-02-09T16:44:46.078Z,99.90
2023-02-09T16:47:22.098Z,99.90
2023-02-09T16:50:02.782Z,99.90
2023-02-09T16:52:30.659Z,99.90
2023-02-09T16:55:01.069Z,99.90
2023-02-09T16:57:29.080Z,99.90
2023-02-09T16:59:56.341Z,99.90
2023-02-09T17:02:29.241Z,99.90
2023-02-09T17:05:03.635Z,99.90
2023-02-09T17:07:48.694Z,99.90
2023-02-09T17:10:22.812Z,99.90
2023-02-09T17:12:51.520Z,99.90
2023-02-09T17:15:29.607Z,99.90
2023-02-09T17:18:04.474Z,99.90
2023-02-09T17:20:37.775Z,99.90
2023-02-09T17:23:05.480Z,99.90
2023-02-09T17:25:35.918Z,99.90
2023-02-09T17:28:03.027Z,99.90
2023-02-09T17:30:32.406Z,99.90
2023-02-09T17:33:03.606Z,99.90
2023-02-09T17:36:03.667Z,99.90
2023-02-09T17:38:24.115Z,99.90
2023-02-09T17:40:54.554Z,99.90
2023-02-09T17:43:22.086Z,99.90
2023-02-09T17:45:51.267Z,99.90
2023-02-09T17:48:20.159Z,99.90
2023-02-09T17:50:49.462Z,99.90
2023-02-09T17:53:18.968Z,99.90
2023-02-09T17:55:46.778Z,99.90
2023-02-09T17:58:14.311Z,99.90
2023-02-09T18:00:44.145Z,99.90
2023-02-09T18:03:19.268Z,99.90
2023-02-09T18:05:58.786Z,99.90
2023-02-09T18:08:27.469Z,99.90
2023-02-09T18:10:58.025Z,99.90
2023-02-09T18:13:27.169Z,99.90
2023-02-09T18:15:54.862Z,99.90
2023-02-09T18:18:24.188Z,99.90
2023-02-09T18:20:51.491Z,99.90
2023-02-09T18:23:18.519Z,99.90
2023-02-09T18:25:47.730Z,99.90
2023-02-09T18:28:16.273Z,99.90
2023-02-09T18:30:44.264Z,99.90
2023-02-09T18:33:11.578Z,99.90
2023-02-09T18:35:40.868Z,99.90
2023-02-09T18:38:10.155Z,99.90
2023-02-09T18:40:42.176Z,99.90
2023-02-09T18:43:11.666Z,99.90
2023-02-09T18:45:38.662Z,99.90
2023-02-09T18:48:05.754Z,99.90
2023-02-09T18:50:33.260Z,99.90
2023-02-09T18:53:02.522Z,99.90
2023-02-09T18:55:32.653Z,99.90
2023-02-09T18:58:01.759Z,99.90
2023-02-09T19:00:29.408Z,99.90
2023-02-09T19:02:57.967Z,99.90
2023-02-09T19:05:32.570Z,99.90
2023-02-09T19:07:59.801Z,99.90
2023-02-09T19:10:27.463Z,99.90
2023-02-09T19:12:55.538Z,99.90
2023-02-09T19:15:25.863Z,99.90
2023-02-09T19:17:55.198Z,99.90
2023-02-09T19:20:30.057Z,99.90
2023-02-09T19:22:58.398Z,99.90
2023-02-09T19:25:27.629Z,99.90
2023-02-09T19:27:55.104Z,99.90
2023-02-09T19:30:26.849Z,99.90
2023-02-09T19:32:57.709Z,99.90
2023-02-09T19:35:24.890Z,99.90
2023-02-09T19:37:56.678Z,99.90
2023-02-09T19:40:33.841Z,99.90
2023-02-09T19:43:00.974Z,99.90
2023-02-09T19:45:31.138Z,99.90
2023-02-09T19:47:58.422Z,99.90
2023-02-09T19:50:25.421Z,99.90
2023-02-09T19:52:53.204Z,99.90
2023-02-09T19:55:20.438Z,99.90
2023-02-09T19:57:47.643Z,99.90
2023-02-09T20:00:18.647Z,99.90
2023-02-09T20:02:47.077Z,99.90
2023-02-09T20:05:16.291Z,99.90
2023-02-09T20:07:43.685Z,99.90
2023-02-09T20:10:11.352Z,99.90
2023-02-09T20:12:38.469Z,99.90
2023-02-09T20:15:05.637Z,99.90
2023-02-09T20:17:32.732Z,99.90
2023-02-09T20:19:59.708Z,99.90
2023-02-09T20:22:26.774Z,99.90
2023-02-09T20:24:53.937Z,99.90
2023-02-09T20:27:21.104Z,99.90
2023-02-09T20:29:48.110Z,99.90
2023-02-09T20:32:15.190Z,99.90
2023-02-09T20:34:42.339Z,99.90
2023-02-09T20:37:09.468Z,99.90
2023-02-09T20:39:36.473Z,99.90
2023-02-09T20:42:22.585Z,99.90
2023-02-09T20:45:07.936Z,99.90
2023-02-09T20:47:34.974Z,99.90
2023-02-09T20:50:02.176Z,99.90
2023-02-09T20:52:30.113Z,99.90
2023-02-09T20:54:57.459Z,99.90
2023-02-09T20:57:29.717Z,99.90
2023-02-09T20:59:58.136Z,99.90
2023-02-09T21:02:25.900Z,99.90
2023-02-09T21:04:57.367Z,99.90
2023-02-09T21:07:25.629Z,99.90
2023-02-09T21:09:55.005Z,99.90
2023-02-09T21:12:22.535Z,99.90
2023-02-09T21:14:50.917Z,99.90
2023-02-09T21:17:19.884Z,99.90
2023-02-09T21:19:47.182Z,99.90
2023-02-09T21:22:15.735Z,99.90
2023-02-09T21:24:43.360Z,99.90
2023-02-09T21:27:10.345Z,99.90
2023-02-09T21:29:37.461Z,99.90
2023-02-09T21:32:06.123Z,99.90
2023-02-09T21:34:33.159Z,99.90
2023-02-09T21:37:00.180Z,99.90
2023-02-09T21:39:27.149Z,99.90
2023-02-09T21:42:12.671Z,99.90
2023-02-09T21:44:39.643Z,99.90
2023-02-09T21:47:06.966Z,99.90
2023-02-09T21:49:34.598Z,99.90
2023-02-09T21:52:01.965Z,99.90
2023-02-09T21:54:34.249Z,99.90
2023-02-09T21:57:01.848Z,99.90
2023-02-09T21:59:29.138Z,99.90
2023-02-09T22:01:56.244Z,99.90
2023-02-09T22:04:23.617Z,99.90
2023-02-09T22:06:50.713Z,99.90
2023-02-09T22:09:20.146Z,99.90
2023-02-09T22:11:47.632Z,99.90
2023-02-09T22:14:15.093Z,99.90
2023-02-09T22:16:42.645Z,99.90
2023-02-09T22:19:09.848Z,99.90
2023-02-09T22:21:37.133Z,99.90
2023-02-09T22:24:04.322Z,99.90
2023-02-09T22:26:31.425Z,99.90
2023-02-09T22:28:58.586Z,99.90
2023-02-09T22:31:25.764Z,99.90
2023-02-09T22:33:58.570Z,99.90
2023-02-09T22:36:26.249Z,99.90
2023-02-09T22:38:53.328Z,99.90
2023-02-09T22:41:23.053Z,99.90
2023-02-09T22:44:00.795Z,99.90
2023-02-09T22:46:36.285Z,99.90
2023-02-09T22:49:09.430Z,99.90
2023-02-09T22:51:36.961Z,99.90
2023-02-09T22:54:05.022Z,99.90
2023-02-09T22:56:36.384Z,99.90
2023-02-09T22:59:03.600Z,99.90
2023-02-09T23:01:32.082Z,99.90
2023-02-09T23:03:59.695Z,99.90
2023-02-09T23:06:28.545Z,99.90
2023-02-09T23:08:59.346Z,99.90
2023-02-09T23:11:34.822Z,99.90
2023-02-09T23:14:10.850Z,99.90
2023-02-09T23:16:39.962Z,99.90
2023-02-09T23:19:09.214Z,99.90
2023-02-09T23:21:41.851Z,99.90
2023-02-09T23:24:09.886Z,99.90
2023-02-09T23:26:39.804Z,99.90
2023-02-09T23:29:24.038Z,99.90
2023-02-09T23:31:51.082Z,99.90
2023-02-09T23:34:21.521Z,99.90
2023-02-09T23:36:48.805Z,99.90
2023-02-09T23:39:18.667Z,99.90
2023-02-09T23:41:45.668Z,99.90
2023-02-09T23:44:12.684Z,99.90
2023-02-09T23:46:42.259Z,99.90
2023-02-09T23:49:09.359Z,99.90
2023-02-09T23:51:36.492Z,99.90
2023-02-09T23:54:06.396Z,99.90
2023-02-09T23:56:37.312Z,99.90
2023-02-09T23:59:07.336Z,99.90
